Capitol, MT

7:42 PM MST on December 27, 2014 (GMT -0700)
Baker Municipal | Change Station
CLOSE
Current Station
Airport
Location: Baker,
Elevation: 2972 ft
Nearby Weather Stations

Elev 2972 ft 46.35 °N, 104.26 °W | Updated 51 minutes ago

Mostly Cloudy
Mostly Cloudy
23 °F
Feels Like 14 °F
N
8
Wind Variable Wind from WSW

Today
High -- | Low -- °F
--% Chance of Precip.
Yesterday
High -- | Low -- °F
Precip. -- in
7:35 AM 4:19 PM
Waxing Crescent, 42% visible
Pressure 30.11 in
Visibility 10.0 miles
Clouds Overcast 6000 ft
Windchill 14 °F
Dew Point 17 °F
Humidity 78%
Rainfall 0.00 in
Snow Depth Not available.
UV 0 out of 12
Pollen .10 out of 12
Air Quality Not available.
Flu Activity Not available.
METAR KBHK 280151Z AUTO 24007KT 10SM OVC060 M05/M08 A2999 RMK AO2 SLP195 T10501083

More Conditions Fewer Conditions

Pressure 30.11 in
Visibility 10.0 miles
Clouds Overcast 6000 ft
Windchill 14 °F
Dew Point 17 °F
Humidity 78%
Rainfall 0.00 in
Snow Depth Not available.
UV 0 out of 12
Pollen .10 out of 12
Air Quality Not available.
Flu Activity Not available.
METAR KBHK 280151Z AUTO 24007KT 10SM OVC060 M05/M08 A2999 RMK AO2 SLP195 T10501083

More Conditions Fewer Conditions

10-Day Weather Forecast

Almanac

Astronomy

Dec. 27, 2014 Rise Set
Actual Time
Civil Twilight
Nautical Twilight
Astronomical Twilight
Moon
Length of Visible Light
Length of Day
Tomorrow will be .
, % of the Moon is Illuminated

Today's Extremes

State Highs State Lows

Community

WunderPhotos

Upload Photos

1,781,144 photos uploaded!

WunderBlogs® & News

Nearby

Air Quality

  Air Quality AQ Index Pollutant
Not available.

Snow Depth

Station Depth Elevation

Earthquake Activity

City Distance Mag. Time & Date
Minimum magnitude displayed is 2.5.

Coastal Water Temperatures

Place Temperature

Nearby Weather Stations